Stations météo

Publicité
East malling, Grande-Bretagne (99008): Température de l'air & dewpoint: 28.03.2020 23:00:00 - 03.04.2020 23:00:00 (BST)East malling, Grande-Bretagne (99008): Température de l'air -20cm: 28.03.2020 23:00:00 - 03.04.2020 23:00:00 (BST)East malling, Grande-Bretagne (99008): Vitesse du vent & gusts: 28.03.2020 23:00:00 - 03.04.2020 23:00:00 (BST)East malling, Grande-Bretagne (99008): Direction du vent: 28.03.2020 23:00:00 - 03.04.2020 23:00:00 (BST)East malling, Grande-Bretagne (99008): reduced air pressure: 28.03.2020 23:00:00 - 03.04.2020 23:00:00 (BST)East malling, Grande-Bretagne (99008): Ensoleillement: 28.03.2020 23:00:00 - 03.04.2020 23:00:00 (BST)East malling, Grande-Bretagne (99008): Quantités de précipitations: 28.03.2020 23:00:00 - 03.04.2020 23:00:00 (BST)
Date & Time tt [°C] td [°C] tt -20cm [°C] ff [km/h] ff [knt] fx [km/h] fx [knt] dd ppp [hPa] sd [min] rr [mm]
03.04.2020 23:00:00 3,9 2,4 - 2 1 - - S 1019,9 0 -
03.04.2020 22:00:00 5,2 2,4 - 4 2 - - E 1019,8 0 0,0
03.04.2020 21:00:00 6,7 2,5 - 5 3 - - E 1019,7 0 0,0
03.04.2020 20:00:00 8,3 1,5 - 8 4 - - SSW 1019,1 18 0,0
03.04.2020 19:00:00 11,4 2,0 - 0 0 - - N 1018,8 6 0,0
03.04.2020 18:00:00 11,7 1,7 - 5 3 - - WNW 1018,6 6 0,0
03.04.2020 17:00:00 12,0 1,9 - 8 4 - - W 1018,4 0 0,0
03.04.2020 16:00:00 11,8 1,8 - 11 6 - - W 1018,3 6 0,0
03.04.2020 15:00:00 11,3 1,4 - 9 5 - - W 1018,5 18 0,0
03.04.2020 14:00:00 10,6 1,7 - 9 5 - - WNW 1018,6 0 0,0
03.04.2020 13:00:00 10,1 2,2 - 11 6 - - W 1018,5 0 0,0
03.04.2020 12:00:00 10,2 1,8 - 11 6 - - SSW 1018,4 18 0,0
03.04.2020 11:00:00 10,5 0,5 - 5 3 - - NNW 1018,2 6 0,0
03.04.2020 10:00:00 9,4 1,0 8,0 2 1 - - N 1017,9 0 0,0
03.04.2020 09:00:00 8,3 3,2 - 2 1 - - W 1017,6 0 0,0
03.04.2020 08:00:00 7,2 2,7 - 0 0 - - N 1017,3 0 0,0
03.04.2020 07:00:00 7,2 1,2 - 4 2 - - WNW 1016,7 0 0,0
03.04.2020 06:00:00 7,6 1,1 - 5 3 - - NW 1016,3 0 0,0
03.04.2020 05:00:00 7,7 3,2 - 5 3 - - NW 1015,8 0 0,0
03.04.2020 04:00:00 8,0 4,0 - 8 4 - - NW 1015,5 0 0,0
03.04.2020 03:00:00 7,9 4,9 - 8 4 - - WNW 1015,4 0 0,0
03.04.2020 02:00:00 8,5 4,7 - 9 5 - - W 1015,2 0 0,0
03.04.2020 01:00:00 9,6 5,0 - 9 5 - - WNW 1015,0 - 0,0
03.04.2020 00:00:00 10,0 5,0 - 13 7 - - NNW 1015,0 0 0,0
02.04.2020 23:00:00 9,6 4,7 - 11 6 - - WNW 1014,7 0 0,0
02.04.2020 22:00:00 9,4 4,4 - 11 6 - - W 1014,7 0 0,0
02.04.2020 21:00:00 9,9 4,6 - 11 6 - - W 1014,1 0 0,0
02.04.2020 20:00:00 10,7 4,6 - 9 5 - - W 1013,6 0 0,0
02.04.2020 19:00:00 12,0 4,8 - 13 7 - - WNW 1013,5 6 0,0
02.04.2020 18:00:00 12,5 4,9 - 16 9 - - WNW 1013,3 0 0,0
02.04.2020 17:00:00 13,1 4,6 - 18 10 - - WNW 1013,3 6 0,0
02.04.2020 16:00:00 12,9 3,2 - 16 9 - - WNW 1013,7 6 0,0
02.04.2020 15:00:00 12,5 2,2 - 16 9 - - WNW 1014,3 12 0,0
02.04.2020 14:00:00 12,3 2,2 - 16 9 - - WNW 1014,8 18 0,0
02.04.2020 13:00:00 11,8 3,8 - 15 8 - - NW 1015,4 6 0,0
02.04.2020 12:00:00 10,5 3,2 - 13 7 - - NW 1015,6 30 0,0
02.04.2020 11:00:00 9,1 4,2 - 9 5 - - WNW 1016,2 6 0,0
02.04.2020 10:00:00 7,6 3,0 7,0 11 6 - - W 1016,5 6 0,0
02.04.2020 09:00:00 7,5 2,1 - 9 5 - - WNW 1016,8 36 0,0
02.04.2020 08:00:00 6,5 1,5 - 8 4 - - W 1017,1 12 0,0
02.04.2020 07:00:00 5,8 0,8 - 8 4 - - WNW 1017,2 0 0,0
02.04.2020 06:00:00 5,9 1,0 - 11 6 - - W 1017,3 0 0,0
02.04.2020 05:00:00 5,4 1,2 - 4 2 - - W 1017,7 0 0,0
02.04.2020 04:00:00 5,2 1,3 - 4 2 - - WNW 1018,0 0 0,0
02.04.2020 03:00:00 5,0 1,2 - 4 2 - - WNW 1018,4 0 0,0
02.04.2020 02:00:00 4,6 1,3 - 4 2 - - WSW 1018,9 0 0,0
02.04.2020 01:00:00 4,4 0,4 - 2 1 - - W 1019,3 - 0,0
02.04.2020 00:00:00 5,7 0,9 - 2 1 - - WNW 1019,6 0 0,0
01.04.2020 23:00:00 6,4 0,9 - 2 1 - - NNW 1019,8 0 0,0
01.04.2020 22:00:00 6,9 0,7 - 8 4 - - NNW 1020,2 0 0,0
01.04.2020 21:00:00 7,0 -0,2 - 4 2 - - NW 1020,2 0 0,0
01.04.2020 20:00:00 7,4 -0,7 - 5 3 - - NNW 1020,3 0 0,0
01.04.2020 19:00:00 7,8 -0,7 - 8 4 - - NNW 1020,4 0 0,0
01.04.2020 18:00:00 8,2 -1,2 - 8 4 - - NNW 1020,8 0 0,0
01.04.2020 17:00:00 8,3 -0,7 - 11 6 - - NNW 1021,1 0 0,0
01.04.2020 16:00:00 9,0 -1,7 - 11 6 - - NNW 1021,5 0 0,0
01.04.2020 15:00:00 8,9 -0,5 - 13 7 - - N 1022,1 0 0,0
01.04.2020 14:00:00 9,3 -0,6 - 11 6 - - N 1022,6 30 0,0
01.04.2020 13:00:00 9,2 -2,1 - 9 5 - - NE 1023,1 54 0,0
01.04.2020 12:00:00 8,4 -1,0 - 13 7 - - N 1024,0 60 0,0
01.04.2020 11:00:00 7,1 -0,4 - 8 4 - - NNE 1024,8 60 0,0
01.04.2020 10:00:00 6,3 1,5 5,9 5 3 - - N 1025,4 60 0,0
01.04.2020 09:00:00 3,5 1,1 - 4 2 - - N 1025,7 60 0,2
01.04.2020 08:00:00 0,4 0,2 - 2 1 - - WNW 1026,0 54 0,0
01.04.2020 07:00:00 -2,7 -3,5 - 2 1 - - WSW 1026,1 0 0,0
01.04.2020 06:00:00 -1,0 -1,5 - 5 3 - - N 1026,2 0 0,0
01.04.2020 05:00:00 -1,0 -1,6 - 4 2 - - W 1026,5 0 0,0
01.04.2020 04:00:00 -1,4 -2,2 - 4 2 - - SW 1026,9 0 0,0
01.04.2020 03:00:00 -0,9 -1,9 - 2 1 - - W 1027,6 0 0,0
01.04.2020 02:00:00 0,2 -0,7 - 4 2 - - NNW 1028,1 0 0,0
01.04.2020 01:00:00 0,1 -1,1 - 4 2 - - N 1028,6 - 0,0
01.04.2020 00:00:00 0,5 -1,3 - 4 2 - - NNE 1029,2 0 0,0
31.03.2020 23:00:00 1,7 -1,8 - 5 3 - - E 1029,4 0 0,0
31.03.2020 22:00:00 3,2 -1,0 - 8 4 - - ENE 1029,6 0 0,0
31.03.2020 21:00:00 4,1 -0,9 - 11 6 - - ENE 1029,9 0 0,0
31.03.2020 20:00:00 4,9 -1,3 - 11 6 - - E 1030,2 24 0,0
31.03.2020 19:00:00 6,3 -2,5 - 16 9 - - ENE 1030,1 60 0,0
31.03.2020 18:00:00 7,5 -2,7 - 21 11 - - E 1030,4 60 0,0
31.03.2020 17:00:00 8,6 -1,1 - 18 10 - - ENE 1030,5 60 0,0
31.03.2020 16:00:00 9,1 -0,7 - 22 12 - - ENE 1030,7 54 0,0
31.03.2020 15:00:00 9,2 0,7 - 22 12 - - ENE 1031,1 54 0,0
31.03.2020 14:00:00 8,5 -0,4 - 21 11 - - ENE 1031,7 36 0,0
31.03.2020 13:00:00 8,0 -1,0 - 22 12 - - ENE 1032,0 42 0,0
31.03.2020 12:00:00 9,4 0,0 - 21 11 - - ENE 1032,1 54 0,0
31.03.2020 11:00:00 7,2 1,7 - 18 10 - - ENE 1032,4 24 0,0
31.03.2020 10:00:00 6,8 3,7 6,4 16 9 - - ENE 1032,4 6 0,0
31.03.2020 09:00:00 5,7 3,4 - 15 8 - - NE 1032,0 30 0,0
31.03.2020 08:00:00 3,9 2,6 - 13 7 - - NNE 1031,9 0 0,0
31.03.2020 07:00:00 2,8 1,2 - 11 6 - - NNE 1031,5 0 0,0
31.03.2020 06:00:00 2,9 1,0 - 13 7 - - NNE 1031,2 0 0,0
31.03.2020 05:00:00 3,6 1,5 - 13 7 - - NNE 1031,3 0 0,0
31.03.2020 04:00:00 3,2 1,5 - 13 7 - - N 1031,2 0 0,0
31.03.2020 03:00:00 3,6 1,8 - 13 7 - - N 1031,3 0 0,0
31.03.2020 02:00:00 4,1 2,3 - 13 7 - - N 1031,3 0 0,0
31.03.2020 01:00:00 4,7 2,5 - 15 8 - - N 1031,4 - 0,0
31.03.2020 00:00:00 4,9 2,1 - 13 7 - - N 1031,4 0 0,0
30.03.2020 23:00:00 5,0 2,1 - 13 7 - - NNE 1031,5 0 0,0
30.03.2020 22:00:00 5,8 2,3 - 18 10 - - NNE 1031,4 0 0,0
30.03.2020 21:00:00 6,5 3,0 - 18 10 - - NNE 1031,2 0 0,0
30.03.2020 20:00:00 6,5 3,3 - 16 9 - - NNE 1031,0 0 0,0
30.03.2020 19:00:00 6,9 2,7 - 13 7 - - NE 1031,0 6 0,0
30.03.2020 18:00:00 7,3 1,9 - 13 7 - - NE 1031,1 18 0,0
30.03.2020 17:00:00 7,2 1,6 - 16 9 - - ENE 1031,4 0 0,0
30.03.2020 16:00:00 8,9 2,7 - 13 7 - - NE 1031,6 18 0,0
30.03.2020 15:00:00 8,7 3,2 - 13 7 - - NNE 1032,2 6 0,0
30.03.2020 14:00:00 7,8 2,1 - 15 8 - - NNE 1032,7 0 0,0
30.03.2020 13:00:00 8,3 2,7 - 15 8 - - NNE 1033,4 30 0,0
30.03.2020 12:00:00 7,1 1,5 - 15 8 - - NNE 1034,0 24 0,0
30.03.2020 11:00:00 7,9 2,0 - 15 8 - - N 1034,6 60 0,0
30.03.2020 10:00:00 5,1 -0,7 5,7 15 8 - - N 1035,3 18 0,0
30.03.2020 09:00:00 4,5 0,0 - 13 7 - - N 1035,5 12 0,0
30.03.2020 08:00:00 2,5 -0,1 - 9 5 - - N 1035,8 6 0,0
30.03.2020 07:00:00 1,5 -1,0 - 8 4 - - NNW 1036,0 0 0,0
30.03.2020 06:00:00 2,7 -0,9 - 13 7 - - N 1036,0 0 0,0
30.03.2020 05:00:00 3,0 -1,3 - 13 7 - - N 1036,4 0 0,0
30.03.2020 04:00:00 2,9 -2,1 - 11 6 - - N 1036,8 0 0,0
30.03.2020 03:00:00 2,6 -3,1 - 13 7 - - NNE 1037,4 0 0,0
30.03.2020 02:00:00 2,6 -3,4 - 15 8 - - N 1037,9 0 0,0
30.03.2020 01:00:00 2,6 -3,7 - 15 8 - - NNE 1038,3 - 0,0
30.03.2020 00:00:00 3,1 -3,9 - 18 10 - - NNE 1038,5 0 0,0
29.03.2020 23:00:00 3,2 -4,1 - 15 8 - - NNE 1038,8 0 0,0
29.03.2020 22:00:00 3,4 -4,0 - 21 11 46 25 NNE 1039,0 0 0,0
29.03.2020 21:00:00 3,5 -4,7 - 24 13 50 27 NE 1039,0 0 0,0
29.03.2020 20:00:00 3,9 -4,6 - 28 15 54 29 NE 1038,5 6 0,0
29.03.2020 19:00:00 4,9 -4,7 - 31 17 55 30 NNE 1037,9 24 0,0
29.03.2020 18:00:00 5,5 -3,8 - 28 15 59 32 NE 1037,5 18 0,0
29.03.2020 17:00:00 5,5 -2,1 - 41 22 57 31 NE 1037,4 18 0,0
29.03.2020 16:00:00 6,3 -0,4 - 39 21 55 30 NE 1037,2 30 0,0
29.03.2020 15:00:00 5,4 1,1 - 28 15 72 39 NNE 1037,3 24 1,0
29.03.2020 14:00:00 2,9 0,6 - 34 18 59 32 NNE 1037,5 18 0,6
29.03.2020 13:00:00 4,9 0,7 - 26 14 67 36 ENE 1037,2 12 0,4
29.03.2020 12:00:00 5,4 0,4 - 34 18 59 32 NE 1036,6 12 0,0
29.03.2020 11:00:00 6,1 0,5 - 31 17 55 30 NNE 1036,2 42 0,0
29.03.2020 10:00:00 5,3 -2,7 6,7 35 19 55 30 NNE 1036,2 6 0,0
29.03.2020 09:00:00 4,7 -3,1 - 31 17 48 26 NNE 1035,6 54 0,0
29.03.2020 08:00:00 3,8 -2,7 - 26 14 - - NNE 1035,2 18 0,0
29.03.2020 07:00:00 3,6 -3,1 - 28 15 46 25 NNE 1034,6 0 0,0
29.03.2020 06:00:00 4,1 -3,4 - 26 14 52 28 NNE 1034,4 0 0,0
29.03.2020 05:00:00 4,0 -3,4 - 22 12 - - NNE 1034,3 0 0,0
29.03.2020 04:00:00 3,9 -1,5 - 21 11 - - NNE 1034,1 0 0,0
29.03.2020 03:00:00 4,3 -0,9 - 22 12 - - NNE 1034,1 0 0,0
29.03.2020 02:00:00 4,1 0,0 - 24 13 - - NNE 1034,4 0 0,0
29.03.2020 01:00:00 4,7 0,3 - 26 14 46 25 NNE 1033,8 - 0,0
29.03.2020 00:00:00 4,8 1,0 - 24 13 48 26 NNE 1033,4 0 0,0
28.03.2020 23:00:00 - - - - - - - - - - -

tt = Température de l'air
td = dewpoint
tt -20cm = Température de l'air -20cm
ff = Vitesse du vent
fx = gusts
dd = Direction du vent
ppp = reduced air pressure
sd = Ensoleillement
rr = Quantités de précipitations

stations d'obs. à proximité